Página principal
METAR-TAF:

METAR-TAF

Aeroportos :

Aeroporto Internacional Harbin Taiping

Harbin, China

latitude: 45-45N, longitude: 126-46E, altura: 143 m

Observação actual do tempo

O boletim foi feito há 42 minutos, às 12:00 UTC
Vento 2 kt de este
Temperatura -6°C
Humidade 79%
Pressão 1021 hPa
Visibilidade: 6000 m

METAR: ZYHB 171200Z 10001MPS 6000 NSC M06/M09 Q1021 NOSIG

Hora: 20:42 (12:42 UTC)

Previsão

O boletim foi feito há 3 horas e 34 minutos, às 09:08 UTC
Previsão válida de 17 às 12 UTC a 18 às 12 UTC
Vento 6 kt de este
Visibilidade: 6000 m
Nuvens dispersasa uma altura de 3000 ft

TAF: ZYHB 170908Z 1712/1812 10003MPS 6000 SCT030 TX01/1806Z TNM10/21Z

Observações e previsões do tempo de mais de 4000 aeroportos (mensagens METAR e TAF).

As estações disponíveis são os pontos amarelos e vermelhos sobre o mapa.

Mova o rato sobre o mapa para ver o nome da estação.

Depois clique no ponto para visualizar as observações e previsões meteorológicas.

Para alterar o mapa : clique nos botões verdes com uma cruz preta para aumentar o zoom; no botão verde com uma pitada de zoom; ou nas setas verdes para mapas adjacentes.


METAR-TAF: